createdAt,value
2022-10-30T00:02:24.357Z,16.90
2022-10-30T00:05:10.268Z,17.00
2022-10-30T00:07:56.806Z,17.10
2022-10-30T00:10:43.220Z,17.00
2022-10-30T00:13:28.957Z,17.10
2022-10-30T00:16:14.356Z,17.00
2022-10-30T00:19:00.571Z,16.90
2022-10-30T00:21:46.034Z,17.00
2022-10-30T00:24:31.644Z,17.00
2022-10-30T00:27:17.580Z,17.00
2022-10-30T00:30:03.426Z,17.00
2022-10-30T00:32:49.836Z,17.00
2022-10-30T00:35:35.512Z,16.90
2022-10-30T00:38:21.438Z,16.80
2022-10-30T00:41:12.032Z,16.80
2022-10-30T00:43:57.623Z,16.80
2022-10-30T00:46:43.265Z,16.90
2022-10-30T00:49:28.571Z,16.80
2022-10-30T00:52:14.452Z,16.80
2022-10-30T00:55:08.967Z,16.80
2022-10-30T00:57:54.963Z,16.70
2022-10-30T01:00:44.802Z,16.60
2022-10-30T01:03:31.714Z,16.70
2022-10-30T01:06:18.016Z,16.80
2022-10-30T01:09:05.038Z,16.80
2022-10-30T01:11:50.905Z,16.80
2022-10-30T01:14:39.355Z,16.80
2022-10-30T01:18:02.844Z,16.60
2022-10-30T01:21:03.429Z,16.80
2022-10-30T01:24:19.033Z,16.80
2022-10-30T01:27:11.388Z,16.80
2022-10-30T01:30:05.002Z,16.80
2022-10-30T01:33:06.641Z,16.70
2022-10-30T01:36:10.543Z,16.80
2022-10-30T01:39:02.792Z,16.80
2022-10-30T01:41:48.691Z,16.80
2022-10-30T01:44:34.892Z,16.90
2022-10-30T01:47:57.942Z,16.80
2022-10-30T01:50:45.342Z,16.70
2022-10-30T01:53:43.393Z,16.70
2022-10-30T01:56:34.247Z,16.70
2022-10-30T01:59:40.609Z,16.70
2022-10-30T02:02:26.849Z,16.70
2022-10-30T02:05:21.758Z,16.60
2022-10-30T02:08:07.418Z,16.50
2022-10-30T02:10:56.743Z,16.60
2022-10-30T02:13:58.693Z,16.80
2022-10-30T02:16:49.107Z,16.80
2022-10-30T02:19:37.121Z,16.70
2022-10-30T02:22:22.932Z,16.70
2022-10-30T02:25:09.119Z,16.60
2022-10-30T02:27:54.857Z,16.60
2022-10-30T02:30:44.141Z,16.70
2022-10-30T02:33:29.945Z,16.70
2022-10-30T02:36:15.827Z,16.60
2022-10-30T02:39:01.928Z,16.60
2022-10-30T02:41:48.065Z,16.60
2022-10-30T02:44:33.600Z,16.60
2022-10-30T02:47:18.946Z,16.70
2022-10-30T02:50:04.781Z,16.60
2022-10-30T02:52:53.847Z,16.70
2022-10-30T02:55:41.041Z,16.70
2022-10-30T02:58:27.135Z,16.50
2022-10-30T03:01:15.703Z,16.40
2022-10-30T03:04:01.877Z,16.40
2022-10-30T03:06:47.245Z,16.40
2022-10-30T03:09:32.784Z,16.50
2022-10-30T03:12:18.365Z,16.70
2022-10-30T03:15:04.369Z,16.30
2022-10-30T03:17:52.443Z,16.00
2022-10-30T03:20:38.369Z,15.90
2022-10-30T03:23:24.163Z,15.90
2022-10-30T03:26:10.624Z,16.10
2022-10-30T03:29:05.676Z,15.70
2022-10-30T03:31:51.562Z,15.90
2022-10-30T03:34:38.635Z,15.80
2022-10-30T03:37:26.290Z,15.60
2022-10-30T03:40:12.059Z,15.40
2022-10-30T03:43:00.174Z,15.40
2022-10-30T03:45:48.495Z,15.30
2022-10-30T03:48:34.034Z,15.20
2022-10-30T03:51:19.894Z,15.40
2022-10-30T03:54:06.082Z,15.50
2022-10-30T03:56:51.535Z,15.50
2022-10-30T03:59:38.166Z,15.50
2022-10-30T04:02:48.158Z,15.40
2022-10-30T04:05:35.639Z,15.60
2022-10-30T04:08:22.207Z,15.70
2022-10-30T04:11:11.251Z,15.90
2022-10-30T04:13:57.957Z,15.80
2022-10-30T04:16:43.570Z,15.90
2022-10-30T04:19:29.002Z,15.80
2022-10-30T04:22:14.754Z,15.90
2022-10-30T04:25:00.807Z,15.90
2022-10-30T04:27:49.388Z,15.80
2022-10-30T04:30:36.993Z,15.80
2022-10-30T04:33:22.839Z,15.80
2022-10-30T04:36:09.262Z,15.90
2022-10-30T04:38:54.797Z,15.90
2022-10-30T04:41:42.882Z,15.80
2022-10-30T04:44:35.471Z,15.90
2022-10-30T04:47:21.265Z,15.90
2022-10-30T04:50:07.067Z,15.70
2022-10-30T04:53:06.729Z,15.60
2022-10-30T04:55:55.298Z,15.60
2022-10-30T04:58:41.399Z,15.80
2022-10-30T05:01:27.408Z,15.70
2022-10-30T05:04:13.767Z,15.60
2022-10-30T05:07:00.477Z,15.60
2022-10-30T05:09:46.824Z,15.60
2022-10-30T05:12:33.261Z,15.70
2022-10-30T05:15:19.089Z,15.80
2022-10-30T05:18:04.894Z,15.80
2022-10-30T05:20:50.955Z,15.80
2022-10-30T05:23:36.537Z,15.80
2022-10-30T05:26:22.118Z,15.70
2022-10-30T05:29:09.837Z,15.80
2022-10-30T05:31:56.737Z,15.70
2022-10-30T05:35:00.721Z,15.70
2022-10-30T05:37:46.766Z,15.60
2022-10-30T05:40:34.653Z,15.60
2022-10-30T05:43:20.134Z,15.60
2022-10-30T05:46:06.279Z,15.60
2022-10-30T05:48:51.751Z,15.60
2022-10-30T05:51:39.751Z,15.50
2022-10-30T05:54:29.187Z,15.40
2022-10-30T05:57:35.444Z,15.50
2022-10-30T06:00:21.361Z,15.70
2022-10-30T06:03:10.528Z,15.70
2022-10-30T06:05:58.540Z,15.80
2022-10-30T06:08:45.569Z,15.90
2022-10-30T06:11:54.756Z,16.00
2022-10-30T06:14:50.244Z,16.10
2022-10-30T06:17:36.066Z,16.10
2022-10-30T06:20:39.067Z,16.10
2022-10-30T06:23:43.123Z,16.00
2022-10-30T06:26:45.053Z,16.00
2022-10-30T06:29:32.714Z,16.10
2022-10-30T06:32:18.740Z,16.10
2022-10-30T06:35:05.276Z,16.10
2022-10-30T06:37:53.564Z,16.20
2022-10-30T06:40:39.430Z,16.00
2022-10-30T06:43:43.690Z,16.10
2022-10-30T06:46:35.736Z,16.20
2022-10-30T06:49:21.251Z,16.30
2022-10-30T06:52:07.527Z,16.50
2022-10-30T06:54:53.123Z,16.70
2022-10-30T06:58:05.143Z,16.80
2022-10-30T07:01:06.832Z,17.00
2022-10-30T07:04:12.497Z,17.20
2022-10-30T07:06:57.985Z,17.90
2022-10-30T07:09:43.878Z,18.40
2022-10-30T07:12:31.083Z,18.40
2022-10-30T07:15:33.716Z,18.40
2022-10-30T07:18:37.220Z,18.80
2022-10-30T07:21:26.539Z,18.90
2022-10-30T07:24:12.136Z,19.20
2022-10-30T07:27:23.982Z,20.30
2022-10-30T07:30:22.177Z,20.60
2022-10-30T07:33:27.195Z,21.30
2022-10-30T07:36:18.555Z,21.20
2022-10-30T07:39:19.389Z,20.70
2022-10-30T07:42:23.017Z,20.40
2022-10-30T07:45:32.373Z,21.20
2022-10-30T07:48:36.323Z,22.10
2022-10-30T07:51:41.172Z,22.20
2022-10-30T07:54:27.037Z,23.10
2022-10-30T07:57:13.058Z,23.60
2022-10-30T08:00:24.742Z,24.20
2022-10-30T08:03:20.385Z,24.40
2022-10-30T08:06:41.687Z,25.10
2022-10-30T08:09:27.251Z,25.50
2022-10-30T08:12:13.097Z,26.20
2022-10-30T08:14:58.682Z,26.80
2022-10-30T08:17:48.656Z,27.40
2022-10-30T08:20:34.493Z,27.50
2022-10-30T08:23:21.776Z,27.50
2022-10-30T08:26:07.595Z,27.80
2022-10-30T08:28:54.847Z,28.20
2022-10-30T08:31:42.238Z,28.50
2022-10-30T08:34:43.137Z,29.00
2022-10-30T08:37:28.953Z,29.50
2022-10-30T08:40:16.102Z,29.50
2022-10-30T08:43:12.874Z,29.70
2022-10-30T08:45:59.193Z,30.20
2022-10-30T08:48:44.593Z,30.40
2022-10-30T08:51:35.226Z,30.80
2022-10-30T08:54:21.019Z,31.30
2022-10-30T08:57:06.821Z,31.40
2022-10-30T08:59:53.373Z,31.40
2022-10-30T09:02:58.539Z,31.10
2022-10-30T09:06:03.178Z,30.80
2022-10-30T09:09:07.743Z,30.50
2022-10-30T09:12:01.860Z,30.90
2022-10-30T09:14:50.868Z,31.40
2022-10-30T09:17:36.461Z,31.20
2022-10-30T09:20:22.050Z,31.70
2022-10-30T09:23:07.699Z,32.90
2022-10-30T09:25:56.891Z,28.60
2022-10-30T09:29:00.819Z,27.40
2022-10-30T09:31:59.555Z,26.50
2022-10-30T09:34:48.529Z,30.00
2022-10-30T09:37:43.427Z,32.10
2022-10-30T09:40:46.764Z,33.10
2022-10-30T09:43:49.194Z,34.00
2022-10-30T09:46:36.257Z,33.00
2022-10-30T09:49:43.585Z,32.40
2022-10-30T09:52:38.009Z,33.00
2022-10-30T09:55:29.489Z,33.40
2022-10-30T09:58:26.333Z,32.40
2022-10-30T10:01:43.661Z,30.90
2022-10-30T10:04:43.518Z,27.90
2022-10-30T10:07:38.955Z,25.90
2022-10-30T10:10:44.235Z,24.90
2022-10-30T10:13:41.729Z,24.00
2022-10-30T10:16:31.342Z,23.50
2022-10-30T10:19:35.518Z,23.40
2022-10-30T10:22:41.475Z,23.10
2022-10-30T10:25:30.499Z,23.30
2022-10-30T10:28:48.013Z,23.10
2022-10-30T10:32:00.871Z,23.10
2022-10-30T10:34:49.334Z,23.70
2022-10-30T10:37:55.895Z,23.20
2022-10-30T10:40:52.167Z,22.90
2022-10-30T10:43:43.567Z,23.10
2022-10-30T10:46:57.313Z,23.20
2022-10-30T10:49:52.004Z,23.20
2022-10-30T10:52:55.945Z,23.10
2022-10-30T10:55:48.403Z,23.20
2022-10-30T10:59:13.677Z,23.50
2022-10-30T11:02:06.178Z,23.40
2022-10-30T11:04:55.441Z,23.20
2022-10-30T11:07:47.974Z,23.40
2022-10-30T11:10:33.542Z,23.50
2022-10-30T11:13:19.085Z,23.50
2022-10-30T11:17:03.389Z,23.50
2022-10-30T11:19:54.554Z,23.20
2022-10-30T11:22:46.217Z,23.30
2022-10-30T11:25:38.940Z,23.70
2022-10-30T11:28:36.659Z,23.80
2022-10-30T11:31:41.103Z,23.80
2022-10-30T11:34:37.521Z,24.30
2022-10-30T11:37:34.020Z,23.80
2022-10-30T11:40:22.331Z,23.60
2022-10-30T11:43:11.279Z,23.80
2022-10-30T11:45:56.870Z,23.90
2022-10-30T11:48:45.567Z,24.00
2022-10-30T11:51:39.730Z,24.00
2022-10-30T11:54:26.476Z,23.90
2022-10-30T11:57:29.291Z,23.80
2022-10-30T12:00:30.648Z,23.90
2022-10-30T12:03:36.653Z,24.00
2022-10-30T12:06:29.546Z,24.20
2022-10-30T12:09:21.384Z,24.40
2022-10-30T12:12:24.641Z,24.50
2022-10-30T12:15:13.194Z,24.50
2022-10-30T12:18:02.178Z,24.50
2022-10-30T12:20:56.620Z,24.40
2022-10-30T12:23:43.165Z,24.40
2022-10-30T12:26:29.606Z,24.40
2022-10-30T12:29:18.428Z,24.50
2022-10-30T12:32:09.277Z,24.40
2022-10-30T12:35:05.584Z,24.50
2022-10-30T12:37:54.195Z,24.70
2022-10-30T12:40:50.182Z,24.70
2022-10-30T12:43:36.460Z,24.90
2022-10-30T12:46:30.945Z,24.70
2022-10-30T12:49:33.511Z,24.60
2022-10-30T12:52:31.818Z,24.50
2022-10-30T12:55:20.472Z,24.50
2022-10-30T12:58:21.628Z,24.60
2022-10-30T13:01:14.611Z,24.60
2022-10-30T13:04:22.103Z,24.40
2022-10-30T13:07:20.453Z,24.50
2022-10-30T13:10:31.423Z,24.50
2022-10-30T13:13:25.795Z,24.70
2022-10-30T13:16:22.635Z,24.80
2022-10-30T13:19:13.180Z,24.80
2022-10-30T13:22:25.320Z,24.90
2022-10-30T13:25:29.627Z,24.80
2022-10-30T13:28:44.569Z,24.90
2022-10-30T13:31:35.538Z,24.70
2022-10-30T13:34:31.066Z,24.80
2022-10-30T13:37:31.217Z,24.80
2022-10-30T13:40:24.233Z,24.70
2022-10-30T13:43:28.535Z,24.80
2022-10-30T13:46:43.381Z,24.90
2022-10-30T13:49:44.793Z,25.00
2022-10-30T13:52:34.831Z,25.00
2022-10-30T13:55:27.462Z,25.10
2022-10-30T13:58:18.690Z,24.80
2022-10-30T14:01:09.998Z,24.70
2022-10-30T14:04:15.696Z,24.90
2022-10-30T14:07:16.928Z,25.00
2022-10-30T14:10:26.429Z,25.00
2022-10-30T14:13:26.682Z,25.10
2022-10-30T14:16:32.768Z,25.10
2022-10-30T14:19:18.639Z,24.90
2022-10-30T14:22:04.366Z,24.70
2022-10-30T14:24:49.904Z,24.80
2022-10-30T14:27:35.507Z,24.80
2022-10-30T14:30:21.163Z,24.90
2022-10-30T14:33:34.108Z,24.80
2022-10-30T14:36:44.600Z,25.00
2022-10-30T14:39:31.013Z,25.00
2022-10-30T14:42:47.995Z,24.70
2022-10-30T14:45:45.007Z,24.80
2022-10-30T14:48:50.165Z,24.80
2022-10-30T14:51:49.908Z,24.80
2022-10-30T14:54:51.462Z,24.70
2022-10-30T14:58:13.538Z,24.70
2022-10-30T15:01:23.454Z,24.70
2022-10-30T15:04:25.599Z,24.80
2022-10-30T15:07:17.191Z,24.80
2022-10-30T15:10:19.511Z,24.60
2022-10-30T15:13:20.131Z,24.30
2022-10-30T15:16:09.124Z,24.20
2022-10-30T15:19:03.150Z,24.00
2022-10-30T15:21:54.639Z,24.00
2022-10-30T15:24:40.598Z,24.00
2022-10-30T15:27:26.923Z,24.10
2022-10-30T15:30:20.553Z,24.20
2022-10-30T15:33:21.907Z,24.00
2022-10-30T15:36:16.881Z,24.00
2022-10-30T15:39:14.453Z,23.90
2022-10-30T15:42:04.136Z,23.60
2022-10-30T15:44:49.892Z,23.30
2022-10-30T15:47:35.860Z,23.20
2022-10-30T15:50:21.875Z,23.20
2022-10-30T15:53:19.306Z,23.10
2022-10-30T15:56:13.585Z,23.10
2022-10-30T15:59:07.532Z,23.00
2022-10-30T16:01:55.577Z,22.90
2022-10-30T16:04:41.247Z,22.80
2022-10-30T16:07:29.078Z,22.80
2022-10-30T16:10:17.964Z,22.70
2022-10-30T16:13:04.270Z,22.80
2022-10-30T16:15:51.040Z,22.70
2022-10-30T16:18:36.804Z,22.60
2022-10-30T16:21:24.652Z,22.70
2022-10-30T16:24:10.628Z,22.50
2022-10-30T16:27:15.972Z,22.40
2022-10-30T16:30:02.123Z,22.40
2022-10-30T16:32:54.693Z,22.40
2022-10-30T16:35:55.955Z,22.30
2022-10-30T16:38:43.405Z,22.20
2022-10-30T16:41:31.333Z,22.30
2022-10-30T16:44:22.241Z,22.40
2022-10-30T16:47:16.786Z,22.30
2022-10-30T16:50:06.222Z,22.30
2022-10-30T16:52:52.068Z,22.20
2022-10-30T16:55:38.677Z,22.00
2022-10-30T16:58:30.287Z,21.90
2022-10-30T17:01:16.503Z,21.80
2022-10-30T17:04:02.456Z,21.60
2022-10-30T17:06:50.351Z,21.60
2022-10-30T17:09:38.576Z,21.50
2022-10-30T17:12:29.243Z,21.40
2022-10-30T17:15:19.510Z,21.20
2022-10-30T17:18:18.315Z,21.20
2022-10-30T17:21:07.861Z,21.10
2022-10-30T17:23:59.867Z,21.00
2022-10-30T17:26:55.220Z,20.90
2022-10-30T17:29:40.960Z,20.90
2022-10-30T17:32:43.149Z,20.90
2022-10-30T17:35:29.131Z,20.90
2022-10-30T17:38:15.038Z,20.80
2022-10-30T17:41:01.723Z,20.70
2022-10-30T17:43:52.792Z,20.70
2022-10-30T17:46:39.045Z,20.60
2022-10-30T17:49:26.649Z,20.50
2022-10-30T17:52:14.819Z,20.40
2022-10-30T17:55:02.266Z,20.30
2022-10-30T17:57:47.798Z,20.20
2022-10-30T18:00:34.647Z,20.20
2022-10-30T18:03:20.000Z,20.20
2022-10-30T18:06:06.781Z,20.10
2022-10-30T18:08:53.296Z,20.10
2022-10-30T18:11:39.145Z,20.00
2022-10-30T18:14:24.516Z,19.90
2022-10-30T18:17:10.745Z,19.90
2022-10-30T18:19:56.353Z,19.80
2022-10-30T18:22:41.705Z,19.80
2022-10-30T18:25:36.460Z,19.70
2022-10-30T18:28:22.085Z,19.70
2022-10-30T18:31:12.219Z,19.60
2022-10-30T18:33:58.022Z,19.60
2022-10-30T18:36:43.941Z,19.60
2022-10-30T18:39:29.593Z,19.60
2022-10-30T18:45:01.221Z,19.40
2022-10-30T18:47:47.894Z,19.20
2022-10-30T18:50:34.361Z,19.20
2022-10-30T18:53:20.958Z,19.20
2022-10-30T18:56:10.393Z,19.30
2022-10-30T18:59:01.651Z,19.30
2022-10-30T19:01:47.735Z,19.20
2022-10-30T19:04:34.144Z,19.20
2022-10-30T19:07:19.526Z,19.10
2022-10-30T19:10:05.407Z,19.10
2022-10-30T19:13:15.407Z,19.10
2022-10-30T19:16:01.236Z,19.10
2022-10-30T19:18:47.573Z,18.90
2022-10-30T19:21:35.284Z,20.20
2022-10-30T19:24:20.726Z,18.70
2022-10-30T19:27:06.320Z,18.70
2022-10-30T19:29:51.904Z,18.50
2022-10-30T19:32:37.606Z,18.40
2022-10-30T19:35:27.027Z,18.40
2022-10-30T19:38:13.597Z,18.50
2022-10-30T19:40:59.419Z,18.40
2022-10-30T19:43:45.181Z,18.40
2022-10-30T19:46:30.891Z,18.30
2022-10-30T19:49:19.069Z,18.40
2022-10-30T19:52:05.169Z,18.30
2022-10-30T19:54:50.853Z,18.30
2022-10-30T19:57:36.627Z,18.30
2022-10-30T20:00:29.265Z,18.20
2022-10-30T20:03:15.789Z,18.10
2022-10-30T20:06:01.544Z,18.10
2022-10-30T20:08:47.245Z,18.00
2022-10-30T20:11:32.920Z,18.00
2022-10-30T20:14:18.406Z,18.00
2022-10-30T20:17:04.368Z,18.00
2022-10-30T20:19:49.943Z,18.10
2022-10-30T20:22:35.498Z,18.00
2022-10-30T20:25:22.592Z,18.00
2022-10-30T20:28:24.544Z,18.00
2022-10-30T20:31:12.555Z,18.00
2022-10-30T20:33:58.713Z,18.00
2022-10-30T20:36:44.476Z,17.90
2022-10-30T20:39:30.267Z,17.90
2022-10-30T20:42:20.477Z,17.80
2022-10-30T20:45:06.731Z,17.90
2022-10-30T20:47:52.946Z,17.90
2022-10-30T20:50:39.274Z,17.80
2022-10-30T20:53:25.306Z,17.80
2022-10-30T20:56:11.690Z,17.70
2022-10-30T20:58:57.267Z,17.70
2022-10-30T21:01:42.690Z,17.70
2022-10-30T21:04:28.158Z,17.70
2022-10-30T21:07:13.618Z,17.70
2022-10-30T21:09:59.184Z,17.70
2022-10-30T21:12:44.961Z,17.70
2022-10-30T21:15:30.311Z,17.70
2022-10-30T21:18:16.334Z,17.70
2022-10-30T21:21:02.970Z,17.60
2022-10-30T21:23:48.636Z,17.60
2022-10-30T21:26:36.511Z,17.60
2022-10-30T21:29:22.423Z,17.60
2022-10-30T21:32:08.296Z,17.70
2022-10-30T21:34:54.026Z,17.60
2022-10-30T21:37:39.583Z,17.60
2022-10-30T21:40:25.117Z,17.20
2022-10-30T21:43:11.389Z,17.60
2022-10-30T21:45:57.105Z,17.60
2022-10-30T21:48:42.912Z,17.60
2022-10-30T21:51:29.894Z,17.60
2022-10-30T21:54:18.992Z,17.50
2022-10-30T21:57:04.951Z,17.30
2022-10-30T21:59:50.447Z,17.20
2022-10-30T22:02:35.903Z,17.30
2022-10-30T22:05:21.457Z,17.40
2022-10-30T22:08:06.835Z,17.20
2022-10-30T22:10:52.355Z,17.20
2022-10-30T22:13:38.060Z,17.30
2022-10-30T22:16:24.325Z,17.30
2022-10-30T22:19:10.648Z,17.20
2022-10-30T22:21:56.380Z,17.20
2022-10-30T22:24:42.035Z,17.20
2022-10-30T22:27:27.552Z,17.20
2022-10-30T22:30:13.657Z,17.10
2022-10-30T22:32:59.754Z,17.10
2022-10-30T22:35:46.009Z,16.90
2022-10-30T22:38:31.612Z,17.00
2022-10-30T22:41:20.700Z,17.10
2022-10-30T22:44:12.901Z,17.10
2022-10-30T22:46:58.524Z,17.10
2022-10-30T22:49:44.002Z,17.10
2022-10-30T22:52:29.594Z,17.10
2022-10-30T22:55:15.072Z,17.00
2022-10-30T22:58:01.071Z,17.10
2022-10-30T23:00:47.244Z,17.00
2022-10-30T23:03:33.092Z,17.00
2022-10-30T23:06:19.681Z,17.10
2022-10-30T23:09:07.961Z,17.00
2022-10-30T23:11:53.252Z,17.00
2022-10-30T23:14:38.681Z,17.00
2022-10-30T23:17:24.051Z,17.00
2022-10-30T23:20:10.227Z,17.00
2022-10-30T23:22:55.838Z,16.90
2022-10-30T23:25:41.390Z,17.00
2022-10-30T23:28:27.008Z,16.90
2022-10-30T23:31:38.434Z,16.90
2022-10-30T23:34:24.024Z,16.90
2022-10-30T23:37:09.505Z,16.90
2022-10-30T23:39:55.118Z,16.90
2022-10-30T23:42:41.012Z,16.80
2022-10-30T23:45:26.510Z,16.80
2022-10-30T23:48:12.290Z,16.80
2022-10-30T23:50:57.661Z,16.80
2022-10-30T23:53:43.050Z,16.80
2022-10-30T23:56:29.560Z,16.80
2022-10-30T23:59:14.887Z,16.70
